Providence, Rhode Island
Traffic Map
Current Weather Conditions
Providence, Rhode Island
Overcast Haze
Overcast
13°
Feels Like: 13°
Wind Chill: 13° Ceiling: 900
Heat Index: 13° Visibility: 5mi
Dew Point: 12° Wind: 15mph
Humidity: 90% Direction: 30° (NNE)
Pressure: 30.26in Gusts: 0mph
Raw Report DataKPVD 282351Z 03013KT 5SM BR OVC009 13/12 A3026 RMK AO2 SLP247 60000 T01330117 10156 20133 53008
Traffic Incident Summary
Active as of:
Severity:
Category:
InformationThere was an issue retrieving the traffic information for this location. Please try a different location or try again shortly.
Advertisements
Track Severe Weather on mobile